| time (UTC) | temp F | wind direction | speed knots | gust knots | rain 1hr in | rain 24hr in | rain mn in | humidity % | barometer mb |
| 20260506155043 | 53 | 262 | 0.0 | 1.7 | 0.00 | 0.00 | 0.00 | 93 | 1018.7 |
| 20260506154043 | 53 | 261 | 0.0 | 1.7 | 0.00 | 0.00 | 0.00 | 93 | 1018.8 |
| 20260506153043 | 53 | 264 | 0.0 | 1.7 | 0.00 | 0.00 | 0.00 | 92 | 1018.7 |
| 20260506152049 | 52 | 97 | 0.0 | 0.9 | 0.00 | 0.00 | 0.00 | 93 | 1018.4 |
| 20260506152044 | 53 | 233 | 0.0 | 0.9 | 0.00 | 0.00 | 0.00 | 92 | 1018.6 |
| 20260506151043 | 52 | 97 | 0.0 | 0.9 | 0.00 | 0.00 | 0.00 | 93 | 1018.3 |
| 20260506145046 | 52 | 61 | 0.0 | 1.7 | 0.00 | 0.00 | 0.00 | 93 | 1018.3 |
| 20260506145042 | 52 | 106 | 0.0 | 0.9 | 0.00 | 0.00 | 0.00 | 93 | 1018.3 |
| 20260506144147 | 52 | 117 | 0.0 | 0.9 | 0.00 | 0.00 | 0.00 | 93 | 1018.3 |
| 20260506143042 | 52 | 117 | 0.0 | 0.9 | 0.00 | 0.00 | 0.00 | 93 | 1018.4 |
| 20260506141045 | 51 | 117 | 0.0 | 0.9 | 0.00 | 0.00 | 0.00 | 94 | 1018.2 |
| 20260506141041 | 52 | 117 | 0.0 | 0.0 | 0.00 | 0.00 | 0.00 | 93 | 1018.3 |
| 20260506135040 | 51 | 117 | 0.0 | 1.7 | 0.00 | 0.00 | 0.00 | 94 | 1018.1 |
| 20260506134039 | 51 | 78 | 0.0 | 0.9 | 0.00 | 0.00 | 0.00 | 94 | 1017.9 |
| 20260506133038 | 51 | 63 | 0.0 | 1.7 | 0.00 | 0.00 | 0.00 | 94 | 1018.0 |
| 20260506132038 | 51 | 63 | 0.9 | 2.6 | 0.00 | 0.00 | 0.00 | 94 | 1017.9 |
| 20260506131038 | 51 | 75 | 0.0 | 0.9 | 0.00 | 0.00 | 0.00 | 94 | 1018.0 |
| 20260506130039 | 51 | 76 | 0.0 | 0.9 | 0.00 | 0.00 | 0.00 | 94 | 1018.0 |
| 20260506125041 | 51 | 69 | 0.0 | 0.9 | 0.00 | 0.00 | 0.00 | 95 | 1018.0 |
| 20260506125037 | 51 | 69 | 0.0 | 1.7 | 0.00 | 0.00 | 0.00 | 95 | 1017.9 |
| 20260506123037 | 50 | 75 | 0.0 | 0.9 | 0.00 | 0.00 | 0.00 | 95 | 1017.9 |
| 20260506122039 | 50 | 73 | 0.0 | 0.9 | 0.00 | 0.00 | 0.00 | 95 | 1017.8 |
| 20260506121037 | 50 | 72 | 0.0 | 1.7 | 0.00 | 0.00 | 0.00 | 95 | 1017.5 |
| 20260506120036 | 50 | 71 | 0.0 | 1.7 | 0.00 | 0.00 | 0.00 | 95 | 1017.4 |
| 20260506115041 | 50 | 80 | 0.0 | 1.7 | 0.00 | 0.00 | 0.00 | 95 | 1017.4 |
| 20260506115036 | 50 | 65 | 0.9 | 1.7 | 0.00 | 0.00 | 0.00 | 95 | 1017.4 |
| 20260506114036 | 50 | 75 | 0.9 | 1.7 | 0.00 | 0.00 | 0.00 | 95 | 1017.5 |
| 20260506113035 | 50 | 80 | 0.0 | 0.9 | 0.00 | 0.00 | 0.00 | 95 | 1017.5 |
| 20260506111034 | 49 | 66 | 0.9 | 1.7 | 0.00 | 0.00 | 0.00 | 96 | 1017.3 |
| 20260506110039 | 49 | 68 | 0.9 | 1.7 | 0.00 | 0.00 | 0.00 | 96 | 1017.1 |
| 20260506110035 | 49 | 65 | 0.0 | 1.7 | 0.00 | 0.00 | 0.00 | 96 | 1017.1 |
| 20260506104033 | 49 | 93 | 0.0 | 0.9 | 0.00 | 0.00 | 0.00 | 96 | 1017.0 |
| 20260506103033 | 48 | 94 | 0.0 | 0.9 | 0.00 | 0.00 | 0.00 | 96 | 1016.9 |
| 20260506102034 | 48 | 76 | 0.0 | 0.9 | 0.00 | 0.00 | 0.00 | 95 | 1016.8 |
| 20260506101035 | 47 | 76 | 0.0 | 1.7 | 0.00 | 0.00 | 0.00 | 95 | 1016.6 |
| 20260506100036 | 47 | 90 | 0.0 | 1.7 | 0.00 | 0.00 | 0.00 | 95 | 1016.6 |
| 20260506100032 | 47 | 90 | 0.0 | 1.7 | 0.00 | 0.00 | 0.00 | 95 | 1016.7 |
| 20260506094030 | 47 | 85 | 0.9 | 1.7 | 0.00 | 0.00 | 0.00 | 95 | 1016.6 |
| 20260506093031 | 47 | 86 | 0.9 | 0.9 | 0.00 | 0.00 | 0.00 | 95 | 1016.6 |
| 20260506092031 | 47 | 87 | 0.0 | 1.7 | 0.00 | 0.00 | 0.00 | 95 | 1016.5 |
| 20260506091035 | 47 | 86 | 0.0 | 0.9 | 0.00 | 0.00 | 0.00 | 95 | 1016.4 |
| 20260506091031 | 47 | 87 | 0.0 | 0.9 | 0.00 | 0.00 | 0.00 | 95 | 1016.5 |
| 20260506085030 | 47 | 86 | 0.9 | 1.7 | 0.00 | 0.00 | 0.00 | 94 | 1016.4 |
| 20260506084029 | 48 | 97 | 0.0 | 1.7 | 0.00 | 0.00 | 0.00 | 95 | 1016.3 |
| 20260506083033 | 48 | 102 | 0.0 | 0.9 | 0.00 | 0.00 | 0.00 | 94 | 1016.4 |
| 20260506083029 | 47 | 104 | 0.9 | 1.7 | 0.00 | 0.00 | 0.00 | 94 | 1016.4 |
| 20260506081028 | 48 | 97 | 0.9 | 0.9 | 0.00 | 0.00 | 0.00 | 94 | 1016.2 |
| 20260506073028 | 49 | 90 | 0.0 | 0.9 | 0.00 | 0.00 | 0.00 | 93 | 1015.9 |
| 20260506072025 | 49 | 83 | 0.0 | 0.9 | 0.00 | 0.00 | 0.00 | 93 | 1015.9 |
| 20260506071026 | 49 | 94 | 0.0 | 0.9 | 0.00 | 0.00 | 0.00 | 93 | 1015.8 |
| 20260506062026 | 51 | 258 | 0.0 | 0.9 | 0.00 | 0.00 | 0.00 | 92 | 1015.7 |
| 20260506061025 | 51 | 83 | 0.0 | 0.0 | 0.00 | 0.00 | 0.00 | 92 | 1015.6 |
| 20260506051022 | 52 | 107 | 0.0 | 0.0 | 0.00 | 0.00 | 0.00 | 92 | 1015.1 |
| 20260506045022 | 53 | 117 | 0.0 | 0.0 | 0.00 | 0.00 | 0.00 | 91 | 1014.9 |
| 20260506044021 | 53 | 117 | 0.0 | 0.0 | 0.00 | 0.00 | 0.00 | 91 | 1014.8 |
| 20260506043021 | 53 | 117 | 0.0 | 0.0 | 0.00 | 0.00 | 0.00 | 90 | 1014.7 |
| 20260506042021 | 54 | 117 | 0.0 | 0.0 | 0.00 | 0.00 | 0.00 | 90 | 1014.6 |
| 20260506041020 | 54 | 118 | 0.0 | 0.0 | 0.00 | 0.00 | 0.00 | 89 | 1014.5 |
| 20260506040020 | 55 | 120 | 0.0 | 0.0 | 0.00 | 0.00 | 0.00 | 88 | 1014.3 |
| 20260506035020 | 56 | 240 | 0.0 | 0.9 | 0.00 | 0.00 | 0.00 | 86 | 1014.2 |
| 20260506034020 | 57 | 240 | 0.0 | 0.0 | 0.00 | 0.00 | 0.00 | 84 | 1014.2 |
| 20260506033019 | 58 | 240 | 0.0 | 0.0 | 0.00 | 0.00 | 0.00 | 82 | 1014.2 |
| 20260506032020 | 60 | 240 | 0.0 | 0.0 | 0.00 | 0.00 | 0.00 | 79 | 1014.0 |
| 20260506031019 | 61 | 240 | 0.0 | 0.0 | 0.00 | 0.00 | 0.00 | 79 | 1014.0 |
| 20260506030022 | 60 | 254 | 0.0 | 3.5 | 0.00 | 0.00 | 0.00 | 79 | 1014.0 |
| 20260506030018 | 60 | 240 | 0.0 | 2.6 | 0.00 | 0.00 | 0.00 | 80 | 1014.0 |
| 20260506024124 | 64 | 259 | 2.6 | 6.1 | 0.00 | 0.00 | 0.00 | 76 | 1014.0 |
| 20260506024023 | 61 | 269 | 0.0 | 4.3 | 0.00 | 0.00 | 0.00 | 81 | 1014.1 |
| 20260506024019 | 61 | 237 | 0.9 | 5.2 | 0.00 | 0.00 | 0.00 | 79 | 1014.0 |
| 20260506022017 | 62 | 276 | 2.6 | 4.3 | 0.00 | 0.00 | 0.00 | 79 | 1014.1 |
| 20260506021017 | 62 | 283 | 1.7 | 6.1 | 0.00 | 0.00 | 0.00 | 79 | 1014.0 |
| 20260506020016 | 62 | 255 | 2.6 | 4.3 | 0.00 | 0.00 | 0.00 | 77 | 1014.0 |
| 20260506015015 | 63 | 275 | 2.6 | 5.2 | 0.00 | 0.00 | 0.00 | 77 | 1013.9 |
| 20260506013015 | 65 | 289 | 1.7 | 6.1 | 0.00 | 0.00 | 0.00 | 75 | 1013.9 |
| 20260506012019 | 67 | 258 | 0.9 | 3.5 | 0.00 | 0.00 | 0.00 | 69 | 1013.8 |
| 20260506012015 | 66 | 244 | 4.3 | 7.8 | 0.00 | 0.00 | 0.00 | 72 | 1013.8 |
| 20260506011121 | 67 | 264 | 1.7 | 5.2 | 0.00 | 0.00 | 0.00 | 70 | 1013.8 |
| 20260506005018 | 67 | 123 | 0.9 | 6.1 | 0.00 | 0.00 | 0.00 | 70 | 1013.9 |
| 20260506005013 | 67 | 316 | 1.7 | 6.1 | 0.00 | 0.00 | 0.00 | 70 | 1013.9 |
| 20260506004119 | 66 | 279 | 2.6 | 5.2 | 0.00 | 0.00 | 0.00 | 71 | 1013.8 |
| 20260506002013 | 67 | 202 | 1.7 | 5.2 | 0.00 | 0.00 | 0.00 | 70 | 1014.0 |
| 20260506001012 | 66 | 148 | 0.9 | 5.2 | 0.00 | 0.00 | 0.00 | 72 | 1014.1 |
| 20260506000012 | 66 | 199 | 0.9 | 4.3 | 0.00 | 0.00 | 0.00 | 72 | 1014.2 |
| 20260505235012 | 66 | 268 | 1.7 | 7.8 | 0.00 | 0.00 | 0.00 | 72 | 1014.4 |
| 20260505234011 | 66 | 303 | 0.9 | 5.2 | 0.00 | 0.00 | 0.00 | 73 | 1014.4 |
| 20260505233010 | 65 | 148 | 1.7 | 5.2 | 0.00 | 0.00 | 0.00 | 73 | 1014.4 |
| 20260505232011 | 65 | 245 | 0.9 | 5.2 | 0.00 | 0.00 | 0.00 | 72 | 1014.5 |
| 20260505231015 | 65 | 231 | 0.0 | 6.1 | 0.00 | 0.00 | 0.00 | 73 | 1014.6 |
| 20260505231011 | 65 | 261 | 1.7 | 4.3 | 0.00 | 0.00 | 0.00 | 73 | 1014.5 |
| 20260505225008 | 64 | 152 | 1.7 | 7.8 | 0.00 | 0.00 | 0.00 | 74 | 1014.7 |
| 20260505224009 | 64 | 116 | 1.7 | 8.7 | 0.00 | 0.00 | 0.00 | 75 | 1014.7 |
| 20260505223009 | 65 | 268 | 0.9 | 4.3 | 0.00 | 0.00 | 0.00 | 76 | 1014.8 |
| 20260505222013 | 64 | 281 | 2.6 | 6.1 | 0.00 | 0.00 | 0.00 | 75 | 1015.0 |
| 20260505222008 | 64 | 209 | 1.7 | 4.3 | 0.00 | 0.00 | 0.00 | 76 | 1014.8 |
| 20260505220008 | 63 | 220 | 0.9 | 5.2 | 0.00 | 0.00 | 0.00 | 77 | 1015.1 |
| 20260505215008 | 64 | 195 | 2.6 | 4.3 | 0.00 | 0.00 | 0.00 | 75 | 1015.1 |
| 20260505214008 | 63 | 165 | 1.7 | 5.2 | 0.00 | 0.00 | 0.00 | 77 | 1015.2 |
| 20260505213007 | 63 | 199 | 0.9 | 4.3 | 0.00 | 0.00 | 0.00 | 77 | 1015.2 |
| 20260505212006 | 63 | 262 | 1.7 | 4.3 | 0.00 | 0.00 | 0.00 | 77 | 1015.2 |
| 20260505211006 | 62 | 248 | 0.0 | 5.2 | 0.00 | 0.00 | 0.00 | 80 | 1015.2 |
| 20260505210006 | 61 | 261 | 0.0 | 3.5 | 0.00 | 0.00 | 0.00 | 79 | 1015.3 |
| 20260505205006 | 61 | 254 | 1.7 | 6.1 | 0.00 | 0.00 | 0.00 | 79 | 1015.4 |
| 20260505204006 | 61 | 224 | 1.7 | 3.5 | 0.00 | 0.00 | 0.00 | 80 | 1015.4 |
| 20260505203003 | 61 | 141 | 0.0 | 4.3 | 0.00 | 0.00 | 0.00 | 81 | 1015.4 |
| 20260505202006 | 61 | 279 | 0.9 | 6.1 | 0.00 | 0.00 | 0.00 | 81 | 1015.4 |
| 20260505201005 | 61 | 68 | 0.9 | 3.5 | 0.00 | 0.00 | 0.00 | 81 | 1015.3 |
| 20260505200007 | 60 | 244 | 0.0 | 5.2 | 0.00 | 0.00 | 0.00 | 81 | 1015.4 |
| 20260505200003 | 60 | 99 | 1.7 | 4.3 | 0.00 | 0.00 | 0.00 | 82 | 1015.4 |
| 20260505194007 | 60 | 265 | 0.9 | 5.2 | 0.00 | 0.00 | 0.00 | 82 | 1015.4 |
| 20260505194003 | 60 | 206 | 0.9 | 3.5 | 0.00 | 0.00 | 0.00 | 83 | 1015.4 |
| 20260505192003 | 60 | 228 | 0.0 | 1.7 | 0.00 | 0.00 | 0.00 | 82 | 1015.4 |
| 20260505191003 | 59 | 259 | 0.9 | 4.3 | 0.00 | 0.00 | 0.00 | 82 | 1015.4 |
| 20260505190008 | 58 | 228 | 0.0 | 6.1 | 0.00 | 0.00 | 0.00 | 85 | 1015.4 |
| 20260505190001 | 59 | 227 | 0.0 | 3.5 | 0.00 | 0.00 | 0.00 | 84 | 1015.4 |
| 20260505185002 | 59 | 164 | 0.9 | 3.5 | 0.00 | 0.00 | 0.00 | 84 | 1015.4 |
| 20260505183002 | 58 | 292 | 1.7 | 5.2 | 0.00 | 0.00 | 0.00 | 85 | 1015.3 |
| 20260505182005 | 58 | 282 | 0.0 | 4.3 | 0.00 | 0.00 | 0.00 | 86 | 1015.3 |
| 20260505182001 | 58 | 117 | 0.0 | 4.3 | 0.00 | 0.00 | 0.00 | 85 | 1015.4 |
| 20260505180001 | 58 | 231 | 0.0 | 5.2 | 0.00 | 0.00 | 0.00 | 85 | 1015.2 |
| 20260505175004 | 58 | 80 | 0.0 | 1.7 | 0.00 | 0.00 | 0.00 | 86 | 1015.2 |
| 20260505175000 | 58 | 178 | 0.0 | 1.7 | 0.00 | 0.00 | 0.00 | 86 | 1015.2 |
| 20260505173002 | 58 | 79 | 0.0 | 0.9 | 0.00 | 0.00 | 0.00 | 86 | 1015.2 |
| 20260505171959 | 57 | 28 | 0.0 | 1.7 | 0.00 | 0.00 | 0.00 | 87 | 1015.1 |
| 20260505171003 | 57 | 243 | 0.0 | 2.6 | 0.00 | 0.00 | 0.00 | 87 | 1015.1 |
| 20260505170959 | 57 | 73 | 0.0 | 0.9 | 0.00 | 0.00 | 0.00 | 87 | 1015.1 |
| 20260505164958 | 57 | 279 | 0.0 | 1.7 | 0.00 | 0.00 | 0.00 | 88 | 1015.1 |
| 20260505163957 | 56 | 140 | 0.0 | 2.6 | 0.00 | 0.00 | 0.00 | 89 | 1015.0 |
| 20260505162958 | 56 | 130 | 0.0 | 2.6 | 0.00 | 0.00 | 0.00 | 89 | 1015.0 |
| 20260505161957 | 56 | 161 | 0.0 | 1.7 | 0.00 | 0.00 | 0.00 | 90 | 1015.2 |
| 20260505161000 | 55 | 189 | 0.0 | 1.7 | 0.00 | 0.00 | 0.00 | 92 | 1015.2 |
| 20260505160956 | 56 | 25 | 0.0 | 2.6 | 0.00 | 0.00 | 0.00 | 91 | 1015.1 |